Cinque Terre — IUTV — position and weather

sailwx.info

Track history (hours):
 
Tides and Currents Weather Stations Pressure Air Temp Water Temp Dewpoint Dewpoint Depression Visibility Wind Speed Wind Dir Waves Ship Positions

Cinque Terre

Last reported at 2014-Jul-24 15:32 UTC. Time now 2014-Jul-24 21:43 UTC.
Position N 40°38' E 014°21'.

Length 15 m; draft 1 m.

Type: Passenger vessel. MMSI: 247208400.

Date/timePositionNaut miles runAvg speedWind from/ knotsBaromVisibWave heightAir tempDewpointWater temp
2014-Jul-24 15:32N 40°38' E 014°21'8 1.0
2014-Jul-24 07:33N 40°34' E 014°12'8 8.0
2014-Jul-24 06:33N 40°38' E 014°21'7 0.3
2014-Jul-23 07:33N 40°34' E 014°14'7 6.4
2014-Jul-23 06:27N 40°38' E 014°21'  
2014-Jul-20 16:17N 40°37' E 014°20'2 2.3
2014-Jul-20 15:33N 40°38' E 014°21'7 6.9
2014-Jul-20 14:33N 40°33' E 014°15'1 0.4
2014-Jul-20 11:33N 40°33' E 014°14'0 0.0
2014-Jul-20 10:33N 40°33' E 014°14'0 0.0
2014-Jul-20 09:33N 40°33' E 014°14'0 0.0
2014-Jul-20 08:33N 40°33' E 014°14'2 2.0
2014-Jul-20 07:33N 40°34' E 014°15'7 6.5
2014-Jul-20 06:32N 40°38' E 014°23'2 0.1
2014-Jul-19 16:33N 40°37' E 014°20'5 4.8
2014-Jul-19 15:33N 40°34' E 014°16'2 1.9
2014-Jul-19 14:33N 40°33' E 014°14'0 0.0
2014-Jul-19 13:33N 40°33' E 014°14'0 0.0
2014-Jul-19 12:33N 40°33' E 014°14'0 0.0
2014-Jul-19 11:33N 40°33' E 014°14'0 0.0
2014-Jul-19 10:28N 40°33' E 014°14'0 0.0
2014-Jul-19 09:33N 40°33' E 014°14'1 0.6
2014-Jul-19 08:33N 40°32' E 014°13'3 2.9
2014-Jul-19 07:33N 40°35' E 014°16'6 5.5
2014-Jul-19 06:33N 40°38' E 014°21'3 0.2
2014-Jul-18 15:33N 40°36' E 014°19'5 4.6
2014-Jul-18 14:33N 40°33' E 014°14'0 0.1
2014-Jul-18 13:33N 40°33' E 014°14'0 0.0
2014-Jul-18 12:33N 40°33' E 014°14'0 0.0
2014-Jul-18 11:33N 40°33' E 014°14'7 7.1
2014-Jul-18 10:33N 40°39' E 014°18'9 8.2
2014-Jul-18 09:30N 40°47' E 014°22'1111.7
2014-Jul-18 08:33N 40°37' E 014°18'3 2.8
2014-Jul-18 07:33N 40°34' E 014°16'4 4.0
2014-Jul-18 06:33N 40°37' E 014°20'0 0.0
2014-Jul-17 15:34N 40°37' E 014°20'4 4.3
2014-Jul-17 14:33N 40°34' E 014°16'1 0.2
2014-Jul-17 09:29N 40°33' E 014°15'0 0.0
2014-Jul-17 08:33N 40°33' E 014°15'2 2.0
2014-Jul-17 07:29N 40°34' E 014°12'8 8.1
2014-Jul-17 06:33N 40°38' E 014°21'7 0.3
2014-Jul-16 07:33N 40°34' E 014°13'7 6.7
2014-Jul-16 06:28N 40°38' E 014°21'1 0.1
2014-Jul-15 15:33N 40°37' E 014°20'4 4.5
2014-Jul-15 14:33N 40°34' E 014°16'2 0.3
2014-Jul-15 07:33N 40°34' E 014°13'7 7.2
2014-Jul-15 06:33N 40°38' E 014°21'  
Track history (hours):
 
Tides and Currents Weather Stations Pressure Air Temp Water Temp Dewpoint Dewpoint Depression Visibility Wind Speed Wind Dir Waves Ship Positions

Cinque Terre

Last reported at 2014-Jul-24 15:32 UTC. Time now 2014-Jul-24 21:43 UTC.
Position N 40°38' E 014°21'.

Length 15 m; draft 1 m.

Type: Passenger vessel. MMSI: 247208400.

Date/timePositionNaut miles runAvg speedWind from/ knotsBaromVisibWave heightAir tempDewpointWater temp
2014-Jul-24 15:32N 40°38' E 014°21'8 1.0
2014-Jul-24 07:33N 40°34' E 014°12'8 8.0
2014-Jul-24 06:33N 40°38' E 014°21'7 0.3
2014-Jul-23 07:33N 40°34' E 014°14'7 6.4
2014-Jul-23 06:27N 40°38' E 014°21'  
2014-Jul-20 16:17N 40°37' E 014°20'2 2.3
2014-Jul-20 15:33N 40°38' E 014°21'7 6.9
2014-Jul-20 14:33N 40°33' E 014°15'1 0.4
2014-Jul-20 11:33N 40°33' E 014°14'0 0.0
2014-Jul-20 10:33N 40°33' E 014°14'0 0.0
2014-Jul-20 09:33N 40°33' E 014°14'0 0.0
2014-Jul-20 08:33N 40°33' E 014°14'2 2.0
2014-Jul-20 07:33N 40°34' E 014°15'7 6.5
2014-Jul-20 06:32N 40°38' E 014°23'2 0.1
2014-Jul-19 16:33N 40°37' E 014°20'5 4.8
2014-Jul-19 15:33N 40°34' E 014°16'2 1.9
2014-Jul-19 14:33N 40°33' E 014°14'0 0.0
2014-Jul-19 13:33N 40°33' E 014°14'0 0.0
2014-Jul-19 12:33N 40°33' E 014°14'0 0.0
2014-Jul-19 11:33N 40°33' E 014°14'0 0.0
2014-Jul-19 10:28N 40°33' E 014°14'0 0.0
2014-Jul-19 09:33N 40°33' E 014°14'1 0.6
2014-Jul-19 08:33N 40°32' E 014°13'3 2.9
2014-Jul-19 07:33N 40°35' E 014°16'6 5.5
2014-Jul-19 06:33N 40°38' E 014°21'3 0.2
2014-Jul-18 15:33N 40°36' E 014°19'5 4.6
2014-Jul-18 14:33N 40°33' E 014°14'0 0.1
2014-Jul-18 13:33N 40°33' E 014°14'0 0.0
2014-Jul-18 12:33N 40°33' E 014°14'0 0.0
2014-Jul-18 11:33N 40°33' E 014°14'7 7.1
2014-Jul-18 10:33N 40°39' E 014°18'9 8.2
2014-Jul-18 09:30N 40°47' E 014°22'1111.7
2014-Jul-18 08:33N 40°37' E 014°18'3 2.8
2014-Jul-18 07:33N 40°34' E 014°16'4 4.0
2014-Jul-18 06:33N 40°37' E 014°20'0 0.0
2014-Jul-17 15:34N 40°37' E 014°20'4 4.3
2014-Jul-17 14:33N 40°34' E 014°16'1 0.2
2014-Jul-17 09:29N 40°33' E 014°15'0 0.0
2014-Jul-17 08:33N 40°33' E 014°15'2 2.0
2014-Jul-17 07:29N 40°34' E 014°12'8 8.1
2014-Jul-17 06:33N 40°38' E 014°21'7 0.3
2014-Jul-16 07:33N 40°34' E 014°13'7 6.7
2014-Jul-16 06:28N 40°38' E 014°21'1 0.1
2014-Jul-15 15:33N 40°37' E 014°20'4 4.5
2014-Jul-15 14:33N 40°34' E 014°16'2 0.3
2014-Jul-15 07:33N 40°34' E 014°13'7 7.2
2014-Jul-15 06:33N 40°38' E 014°21'  

Dump ship's entire track history